createdAt,value
2022-08-17T00:03:23.047Z,2.00
2022-08-17T00:08:32.320Z,2.22
2022-08-17T00:25:48.265Z,2.30
2022-08-17T00:30:56.456Z,2.30
2022-08-17T00:36:02.818Z,2.42
2022-08-17T00:41:09.804Z,2.47
2022-08-17T00:46:16.890Z,2.70
2022-08-17T00:56:33.690Z,2.60
2022-08-17T01:01:38.631Z,2.60
2022-08-17T01:06:50.171Z,2.47
2022-08-17T01:11:53.063Z,2.30
2022-08-17T01:17:00.375Z,2.60
2022-08-17T01:22:08.632Z,2.50
2022-08-17T01:27:18.451Z,2.53
2022-08-17T01:32:22.695Z,2.53
2022-08-17T01:37:31.935Z,2.30
2022-08-17T01:42:45.110Z,2.70
2022-08-17T01:47:51.474Z,2.60
2022-08-17T01:53:03.174Z,2.38
2022-08-17T01:58:11.961Z,2.45
2022-08-17T02:03:18.319Z,2.40
2022-08-17T02:08:39.340Z,2.55
2022-08-17T02:14:24.222Z,2.97
2022-08-17T02:19:26.318Z,2.63
2022-08-17T02:24:59.469Z,2.80
2022-08-17T02:29:59.961Z,2.97
2022-08-17T02:35:04.261Z,3.25
2022-08-17T02:40:12.880Z,3.30
2022-08-17T02:45:20.940Z,3.30
2022-08-17T02:55:34.917Z,3.00
2022-08-17T03:05:54.438Z,3.10
2022-08-17T03:11:04.945Z,3.42
2022-08-17T03:16:10.211Z,3.28
2022-08-17T03:26:29.890Z,3.70
2022-08-17T03:31:32.457Z,3.47
2022-08-17T03:36:35.938Z,3.53
2022-08-17T03:41:40.065Z,3.50
2022-08-17T03:47:04.957Z,3.67
2022-08-17T03:52:24.879Z,3.80
2022-08-17T03:57:37.209Z,3.17
2022-08-17T04:02:40.230Z,4.05
2022-08-17T04:07:45.608Z,4.15
2022-08-17T04:12:51.523Z,5.57
2022-08-17T04:17:54.006Z,3.90
2022-08-17T04:23:02.696Z,3.42
2022-08-17T04:28:16.531Z,4.50
2022-08-17T04:33:23.043Z,4.30
2022-08-17T04:38:33.958Z,4.18
2022-08-17T04:44:03.871Z,3.92
2022-08-17T04:50:25.895Z,3.58
2022-08-17T04:56:01.098Z,3.83
2022-08-17T05:01:03.547Z,3.75
2022-08-17T05:06:10.287Z,3.80
2022-08-17T05:11:12.364Z,4.32
2022-08-17T05:16:15.358Z,4.00
2022-08-17T05:21:22.282Z,3.40
2022-08-17T05:26:27.380Z,3.97
2022-08-17T05:31:38.647Z,4.10
2022-08-17T05:36:45.099Z,4.72
2022-08-17T05:41:52.580Z,5.90
2022-08-17T05:46:59.189Z,8.00
2022-08-17T05:52:27.758Z,6.63
2022-08-17T05:58:16.928Z,4.15
2022-08-17T06:03:53.818Z,3.80
2022-08-17T06:09:13.033Z,3.50
2022-08-17T06:14:27.137Z,3.60
2022-08-17T06:19:43.906Z,3.30
2022-08-17T06:25:03.061Z,3.78
2022-08-17T06:30:12.407Z,5.25
2022-08-17T06:35:31.833Z,7.90
2022-08-17T06:40:52.559Z,5.53
2022-08-17T06:46:06.258Z,5.47
2022-08-17T06:51:16.079Z,4.10
2022-08-17T06:56:54.678Z,4.50
2022-08-17T07:02:10.719Z,4.82
2022-08-17T07:07:31.554Z,4.43
2022-08-17T07:12:43.193Z,4.07
2022-08-17T07:17:51.720Z,3.60
2022-08-17T07:23:02.147Z,3.70
2022-08-17T07:28:13.934Z,3.60
2022-08-17T07:33:22.155Z,3.80
2022-08-17T07:38:28.803Z,3.88
2022-08-17T07:43:40.119Z,3.13
2022-08-17T07:48:47.763Z,3.15
2022-08-17T07:53:53.694Z,3.03
2022-08-17T07:59:13.081Z,3.45
2022-08-17T08:04:59.171Z,3.83
2022-08-17T08:10:09.049Z,3.35
2022-08-17T08:15:26.114Z,3.53
2022-08-17T08:20:52.072Z,3.60
2022-08-17T08:26:06.055Z,3.50
2022-08-17T08:31:26.594Z,3.75
2022-08-17T08:36:59.326Z,5.10
2022-08-17T08:42:15.427Z,4.07
2022-08-17T08:47:35.508Z,4.65
2022-08-17T08:53:20.125Z,3.72
2022-08-17T08:58:42.227Z,4.25
2022-08-17T09:04:28.591Z,4.07
2022-08-17T09:09:43.506Z,3.90
2022-08-17T09:15:02.020Z,4.20
2022-08-17T09:20:28.053Z,4.40
2022-08-17T09:25:37.065Z,4.07
2022-08-17T09:30:46.774Z,4.00
2022-08-17T09:35:57.717Z,5.10
2022-08-17T09:41:18.246Z,3.58
2022-08-17T09:46:29.943Z,3.70
2022-08-17T09:51:41.442Z,4.43
2022-08-17T09:57:27.949Z,3.40
2022-08-17T10:02:54.821Z,3.47
2022-08-17T10:08:04.307Z,3.53
2022-08-17T10:13:21.999Z,3.40
2022-08-17T10:18:40.555Z,6.30
2022-08-17T10:24:02.792Z,3.17
2022-08-17T10:29:20.747Z,2.80
2022-08-17T10:34:49.927Z,3.05
2022-08-17T10:40:09.372Z,2.95
2022-08-17T10:45:27.722Z,2.70
2022-08-17T10:51:01.353Z,2.63
2022-08-17T10:56:27.965Z,5.10
2022-08-17T11:02:10.494Z,2.70
2022-08-17T11:07:28.566Z,2.58
2022-08-17T11:12:47.205Z,2.75
2022-08-17T11:18:15.148Z,2.65
2022-08-17T11:23:51.907Z,3.03
2022-08-17T11:29:06.979Z,2.97
2022-08-17T11:34:28.957Z,2.70
2022-08-17T11:40:06.737Z,2.58
2022-08-17T11:45:35.965Z,2.50
2022-08-17T11:51:07.123Z,2.30
2022-08-17T11:56:15.797Z,2.60
2022-08-17T12:01:56.460Z,2.30
2022-08-17T12:07:13.621Z,2.35
2022-08-17T12:12:23.255Z,2.30
2022-08-17T12:17:39.563Z,2.28
2022-08-17T12:23:08.440Z,2.20
2022-08-17T12:28:31.100Z,2.30
2022-08-17T12:33:40.018Z,2.05
2022-08-17T12:38:53.005Z,2.40
2022-08-17T12:44:03.183Z,2.30
2022-08-17T12:49:27.194Z,2.10
2022-08-17T12:54:43.188Z,2.22
2022-08-17T12:59:49.593Z,2.00
2022-08-17T13:04:55.616Z,1.98
2022-08-17T13:10:04.384Z,1.75
2022-08-17T13:16:13.751Z,2.00
2022-08-17T13:21:32.647Z,1.90
2022-08-17T13:26:39.253Z,1.92
2022-08-17T13:31:52.257Z,1.80
2022-08-17T13:37:13.990Z,2.20
2022-08-17T13:42:34.245Z,1.60
2022-08-17T13:48:13.498Z,1.70
2022-08-17T13:54:03.217Z,1.75
2022-08-17T13:59:53.010Z,1.90
2022-08-17T14:05:00.889Z,2.40
2022-08-17T14:10:07.593Z,1.60
2022-08-17T14:15:11.930Z,1.65
2022-08-17T14:20:17.141Z,1.70
2022-08-17T14:25:21.737Z,1.85
2022-08-17T14:30:26.710Z,1.90
2022-08-17T14:35:58.288Z,2.80
2022-08-17T14:41:00.387Z,2.55
2022-08-17T14:46:02.903Z,1.60
2022-08-17T14:51:06.575Z,1.80
2022-08-17T14:56:09.025Z,1.65
2022-08-17T15:01:12.126Z,1.95
2022-08-17T15:06:18.182Z,1.83
2022-08-17T15:11:21.248Z,1.80
2022-08-17T15:16:23.673Z,1.63
2022-08-17T15:21:27.134Z,1.90
2022-08-17T15:26:29.237Z,1.80
2022-08-17T15:31:34.545Z,2.00
2022-08-17T15:36:38.146Z,1.90
2022-08-17T15:41:43.794Z,1.90
2022-08-17T15:46:47.212Z,2.08
2022-08-17T15:51:56.366Z,2.42
2022-08-17T15:56:58.444Z,2.65
2022-08-17T16:03:14.560Z,2.50
2022-08-17T16:07:26.741Z,2.50
2022-08-17T16:12:29.466Z,2.40
2022-08-17T16:17:40.167Z,2.15
2022-08-17T16:22:54.998Z,2.00
2022-08-17T16:27:57.355Z,2.15
2022-08-17T16:33:03.327Z,2.40
2022-08-17T16:38:07.022Z,2.20
2022-08-17T16:43:12.164Z,2.65
2022-08-17T16:48:16.261Z,2.40
2022-08-17T16:53:20.222Z,6.53
2022-08-17T16:58:22.655Z,2.65
2022-08-17T17:03:27.195Z,2.90
2022-08-17T17:08:35.166Z,2.60
2022-08-17T17:13:42.059Z,2.60
2022-08-17T17:18:58.204Z,2.67
2022-08-17T17:24:05.995Z,2.50
2022-08-17T17:29:21.496Z,2.88
2022-08-17T17:34:29.226Z,3.00
2022-08-17T17:39:44.581Z,3.00
2022-08-17T17:44:51.617Z,2.90
2022-08-17T17:49:58.922Z,2.80
2022-08-17T17:55:17.442Z,2.92
2022-08-17T18:00:26.882Z,3.40
2022-08-17T18:05:40.671Z,3.17
2022-08-17T18:10:52.169Z,3.45
2022-08-17T18:15:55.493Z,3.65
2022-08-17T18:21:06.472Z,3.67
2022-08-17T18:26:09.943Z,3.72
2022-08-17T18:31:17.825Z,8.27
2022-08-17T18:36:29.422Z,3.88
2022-08-17T18:41:41.622Z,4.05
2022-08-17T18:46:43.698Z,4.20
2022-08-17T18:51:47.261Z,3.40
2022-08-17T18:56:58.866Z,4.00
2022-08-17T19:02:17.767Z,3.72
2022-08-17T19:07:30.285Z,4.40
2022-08-17T19:12:41.810Z,3.80
2022-08-17T19:17:53.085Z,3.50
2022-08-17T19:23:03.115Z,3.83
2022-08-17T19:28:21.488Z,4.18
2022-08-17T19:33:28.100Z,4.15
2022-08-17T19:38:46.375Z,4.00
2022-08-17T19:44:06.864Z,4.13
2022-08-17T19:49:17.086Z,4.18
2022-08-17T19:54:27.153Z,4.15
2022-08-17T19:59:49.080Z,4.22
2022-08-17T20:04:57.462Z,4.93
2022-08-17T20:10:06.807Z,4.45
2022-08-17T20:15:12.785Z,3.90
2022-08-17T20:20:29.726Z,3.90
2022-08-17T20:25:42.153Z,3.70
2022-08-17T20:30:48.978Z,3.80
2022-08-17T20:36:05.121Z,3.90
2022-08-17T20:41:13.159Z,3.70
2022-08-17T20:46:28.181Z,3.85
2022-08-17T20:51:34.784Z,3.50
2022-08-17T20:56:56.548Z,3.70
2022-08-17T21:02:18.989Z,4.18
2022-08-17T21:07:29.267Z,4.18
2022-08-17T21:12:42.720Z,3.63
2022-08-17T21:17:50.338Z,3.50
2022-08-17T21:23:08.621Z,3.63
2022-08-17T21:28:29.965Z,3.85
2022-08-17T21:33:40.048Z,4.00
2022-08-17T21:38:56.977Z,4.85
2022-08-17T21:44:07.925Z,4.30
2022-08-17T21:49:16.792Z,3.75
2022-08-17T21:54:30.949Z,3.70
2022-08-17T21:59:35.729Z,4.60
2022-08-17T22:04:48.357Z,4.85
2022-08-17T22:09:51.125Z,4.25
2022-08-17T22:15:01.539Z,4.40
2022-08-17T22:20:09.728Z,3.53
2022-08-17T22:25:22.190Z,4.15
2022-08-17T22:30:37.121Z,3.70
2022-08-17T22:35:46.694Z,3.95
2022-08-17T22:40:52.178Z,3.80
2022-08-17T22:45:56.610Z,4.05
2022-08-17T22:51:12.599Z,3.83
2022-08-17T22:56:35.524Z,4.40
2022-08-17T23:01:39.167Z,4.18
2022-08-17T23:06:42.887Z,4.90
2022-08-17T23:11:49.766Z,4.80
2022-08-17T23:16:52.571Z,4.00
2022-08-17T23:21:57.250Z,4.00
2022-08-17T23:26:59.748Z,3.90
2022-08-17T23:32:04.825Z,3.97
2022-08-17T23:37:13.230Z,4.00
2022-08-17T23:42:24.893Z,4.40
2022-08-17T23:47:28.682Z,4.82
2022-08-17T23:52:36.999Z,10.45
2022-08-17T23:57:41.464Z,6.10
